createdAt,value
2017-04-10T00:01:02.107Z,28.8
2017-04-10T00:03:59.925Z,28.8
2017-04-10T00:12:50.981Z,28.9
2017-04-10T00:18:44.675Z,29.1
2017-04-10T00:27:35.792Z,29.6
2017-04-10T00:30:32.678Z,29.8
2017-04-10T00:33:28.865Z,29.9
2017-04-10T00:42:20.808Z,30.1
2017-04-10T00:48:14.684Z,30.1
2017-04-10T00:54:08.917Z,30.3
2017-04-10T01:00:02.898Z,30.7
2017-04-10T01:02:58.757Z,30.8
2017-04-10T01:08:53.991Z,31
2017-04-10T01:11:50.017Z,30.9
2017-04-10T01:17:44.886Z,31
2017-04-10T01:23:38.812Z,30.9
2017-04-10T01:32:29.802Z,30.9
2017-04-10T01:38:24.014Z,30.9
2017-04-10T01:41:19.896Z,31.1
2017-04-10T01:44:18.056Z,31.3
2017-04-10T02:01:59.923Z,31.9
2017-04-10T02:04:56.971Z,32
2017-04-10T02:16:46.357Z,32.6
2017-04-10T02:19:41.432Z,32.7
2017-04-10T02:25:36.049Z,33
2017-04-10T02:34:27.015Z,33
2017-04-10T02:37:22.939Z,32.9
2017-04-10T02:40:20.762Z,32.8
2017-04-10T02:43:16.958Z,32.8
2017-04-10T02:46:15.021Z,32.7
2017-04-10T02:55:05.754Z,32.5
2017-04-10T03:03:57.001Z,32.4
2017-04-10T03:09:50.846Z,32.3
2017-04-10T03:18:42.055Z,32.1
2017-04-10T03:21:38.188Z,32
2017-04-10T03:27:33.085Z,31.9
2017-04-10T03:30:29.127Z,31.8
2017-04-10T03:33:27.024Z,31.7
2017-04-10T04:00:00.096Z,32.5
2017-04-10T04:05:53.825Z,32.7
2017-04-10T04:32:27.909Z,33.5
2017-04-10T04:35:24.083Z,33.5
2017-04-10T04:38:21.119Z,33.6
2017-04-10T04:53:06.259Z,33.5
2017-04-10T04:56:02.199Z,33.4
2017-04-10T05:04:54.129Z,33.2
2017-04-10T05:19:38.890Z,33
2017-04-10T05:22:35.314Z,32.9
2017-04-10T05:25:33.032Z,33
2017-04-10T05:37:21.214Z,33.4
2017-04-10T05:43:14.839Z,33.6
2017-04-10T05:55:02.857Z,33.9
2017-04-10T06:09:48.186Z,33.7
2017-04-10T06:36:21.166Z,34
2017-04-10T06:39:17.423Z,34.2
2017-04-10T06:48:10.002Z,34.4
2017-04-10T06:59:57.083Z,34.3
2017-04-10T07:08:48.289Z,34.2
2017-04-10T07:20:37.177Z,34.3
2017-04-10T07:26:31.125Z,34.3
2017-04-10T07:29:26.983Z,34.3
2017-04-10T07:41:15.121Z,34.2
2017-04-10T07:56:00.174Z,34.2
2017-04-10T08:01:54.146Z,34.3
2017-04-10T08:07:48.098Z,34.1
2017-04-10T08:13:43.050Z,33.9
2017-04-10T08:16:38.993Z,33.8
2017-04-10T08:22:33.230Z,33.8
2017-04-10T08:25:29.573Z,34
2017-04-10T08:37:18.163Z,33.8
2017-04-10T08:43:11.957Z,33.8
2017-04-10T08:46:09.127Z,33.7
2017-04-10T08:49:08.184Z,33.7
2017-04-10T09:03:51.024Z,33.6
2017-04-10T09:06:47.947Z,33.6
2017-04-10T09:09:45.204Z,33.4
2017-04-10T09:15:40.188Z,33.3
2017-04-10T09:21:33.559Z,33.2
2017-04-10T09:24:30.155Z,33.2
2017-04-10T09:30:24.048Z,33.3
2017-04-10T09:36:19.341Z,33.2
2017-04-10T09:39:14.671Z,33.2
2017-04-10T09:56:56.980Z,32.8
2017-04-10T10:02:51.280Z,32.6
2017-04-10T10:11:42.782Z,32.3
2017-04-10T10:20:34.093Z,32.2
2017-04-10T10:23:29.770Z,32.2
2017-04-10T10:26:27.962Z,32.2
2017-04-10T10:29:23.769Z,32.1
2017-04-10T10:32:21.020Z,32
2017-04-10T10:50:04.381Z,31.7
2017-04-10T10:52:59.809Z,31.7
2017-04-10T10:55:57.323Z,31.6
2017-04-10T11:01:51.058Z,31.4
2017-04-10T11:07:46.257Z,31.3
2017-04-10T11:10:42.261Z,31.3
2017-04-10T11:16:36.198Z,31.1
2017-04-10T11:19:32.848Z,31.1
2017-04-10T11:25:28.203Z,31
2017-04-10T11:28:23.934Z,30.9
2017-04-10T11:37:15.059Z,30.8
2017-04-10T11:49:04.296Z,30.7
2017-04-10T11:51:59.903Z,30.6
2017-04-10T12:06:46.423Z,30.5
2017-04-10T12:21:30.303Z,30.4
2017-04-10T13:26:25.262Z,30
2017-04-10T13:29:21.440Z,30
2017-04-10T13:38:13.086Z,29.9
2017-04-10T13:52:58.364Z,29.8
2017-04-10T13:55:54.060Z,29.8
2017-04-10T13:58:52.089Z,29.8
2017-04-10T14:01:48.355Z,29.8
2017-04-10T14:07:43.381Z,29.8
2017-04-10T14:34:16.395Z,29.7
2017-04-10T14:37:12.172Z,29.7
2017-04-10T14:46:04.229Z,29.6
2017-04-10T14:49:00.219Z,29.6
2017-04-10T14:54:55.363Z,29.6
2017-04-10T15:03:46.475Z,29.5
2017-04-10T15:09:40.356Z,29.5
2017-04-10T15:18:31.283Z,29.5
2017-04-10T15:33:16.645Z,29.4
2017-04-10T15:42:07.543Z,29.4
2017-04-10T15:45:03.722Z,29.4
2017-04-10T15:50:58.353Z,29.4
2017-04-10T15:53:54.357Z,29.4
2017-04-10T15:56:52.730Z,29.4
2017-04-10T15:59:48.396Z,29.4
2017-04-10T16:02:47.274Z,29.4
2017-04-10T16:05:42.749Z,29.4
2017-04-10T16:14:34.491Z,29.4
2017-04-10T16:17:30.390Z,29.4
2017-04-10T16:20:30.081Z,29.3
2017-04-10T16:23:24.311Z,29.3
2017-04-10T16:26:22.316Z,29.4
2017-04-10T16:35:14.400Z,29.3
2017-04-10T16:38:09.419Z,29.2
2017-04-10T16:41:07.229Z,29.2
2017-04-10T16:44:03.377Z,29.2
2017-04-10T16:47:01.702Z,29.2
2017-04-10T16:49:57.416Z,29.2
2017-04-10T16:58:49.572Z,29.1
2017-04-10T17:07:40.486Z,29.1
2017-04-10T17:13:34.260Z,29
2017-04-10T17:16:30.457Z,29
2017-04-10T17:22:25.163Z,29
2017-04-10T17:25:21.362Z,29
2017-04-10T17:31:16.449Z,29
2017-04-10T17:34:12.435Z,28.9
2017-04-10T17:43:04.469Z,28.9
2017-04-10T17:48:58.157Z,28.9
2017-04-10T17:57:49.265Z,29
2017-04-10T18:00:45.522Z,28.9
2017-04-10T18:03:43.514Z,29
2017-04-10T18:06:39.423Z,29
2017-04-10T18:09:37.244Z,29
2017-04-10T18:12:33.937Z,29
2017-04-10T18:15:31.228Z,28.9
2017-04-10T18:18:27.416Z,29
2017-04-10T18:21:25.395Z,29
2017-04-10T18:24:21.465Z,29
2017-04-10T18:27:19.229Z,29
2017-04-10T18:30:15.451Z,29
2017-04-10T18:33:13.287Z,29
2017-04-10T18:39:07.226Z,29
2017-04-10T18:47:58.230Z,29
2017-04-10T18:53:52.472Z,29
2017-04-10T18:56:48.472Z,29
2017-04-10T18:59:46.225Z,29
2017-04-10T19:02:42.471Z,29
2017-04-10T19:05:40.240Z,29
2017-04-10T19:11:35.245Z,29
2017-04-10T19:14:30.508Z,29
2017-04-10T19:17:28.160Z,29
2017-04-10T19:26:19.349Z,29
2017-04-10T19:29:15.531Z,29
2017-04-10T19:35:10.178Z,29
2017-04-10T19:46:59.247Z,29
2017-04-10T19:49:54.536Z,29
2017-04-10T19:52:52.336Z,29
2017-04-10T19:55:48.542Z,28.9
2017-04-10T19:58:47.221Z,28.9
2017-04-10T20:01:42.611Z,28.9
2017-04-10T20:04:40.528Z,28.8
2017-04-10T20:07:36.651Z,28.8
2017-04-10T20:13:32.361Z,28.8
2017-04-10T20:16:46.995Z,28.8
2017-04-10T20:22:22.486Z,28.8
2017-04-10T20:25:18.555Z,28.8
2017-04-10T20:28:35.103Z,28.8
2017-04-10T20:31:12.592Z,28.7
2017-04-10T20:34:10.244Z,28.8
2017-04-10T20:40:05.230Z,28.6
2017-04-10T20:43:01.107Z,28.6
2017-04-10T20:52:11.107Z,28.5
2017-04-10T20:54:48.632Z,28.4
2017-04-10T21:03:40.237Z,28.4
2017-04-10T21:06:36.632Z,28.4
2017-04-10T21:15:48.468Z,28.2
2017-04-10T21:24:38.185Z,28.1
2017-04-10T21:27:35.086Z,28.1
2017-04-10T21:42:01.322Z,28
2017-04-10T21:47:56.491Z,28
2017-04-10T22:05:37.255Z,28
2017-04-10T22:20:23.329Z,27.9
2017-04-10T22:26:17.527Z,28
2017-04-10T22:43:59.348Z,27.8
2017-04-10T22:49:53.379Z,27.8
2017-04-10T22:52:48.852Z,27.8
2017-04-10T22:55:46.353Z,27.8
2017-04-10T22:58:42.819Z,27.7
2017-04-10T23:01:40.448Z,27.8
2017-04-10T23:07:35.364Z,27.8
2017-04-10T23:10:31.416Z,27.8
2017-04-10T23:13:29.638Z,27.7
2017-04-10T23:16:25.129Z,27.8
2017-04-10T23:19:22.739Z,27.8
2017-04-10T23:25:17.932Z,27.8
2017-04-10T23:31:11.666Z,27.8
2017-04-10T23:34:06.998Z,27.9
2017-04-10T23:37:04.586Z,27.8
2017-04-10T23:42:59.478Z,27.9
2017-04-10T23:45:55.091Z,28
2017-04-10T23:57:45.564Z,28.2
